sensor_id;sensor_type;location;lat;lon;timestamp;P1;durP1;ratioP1;P2;durP2;ratioP2
14849;SDS011;7517;48.400;11.770;2024-03-02T00:01:33;6.87;;;6.23;;
14849;SDS011;7517;48.400;11.770;2024-03-02T00:04:00;6.30;;;5.70;;
14849;SDS011;7517;48.400;11.770;2024-03-02T00:06:30;7.30;;;6.60;;
14849;SDS011;7517;48.400;11.770;2024-03-02T00:08:57;7.50;;;6.80;;
14849;SDS011;7517;48.400;11.770;2024-03-02T00:11:25;8.40;;;7.53;;
14849;SDS011;7517;48.400;11.770;2024-03-02T00:13:52;8.70;;;7.77;;
14849;SDS011;7517;48.400;11.770;2024-03-02T00:16:20;9.93;;;7.87;;
14849;SDS011;7517;48.400;11.770;2024-03-02T00:18:48;8.37;;;7.30;;
14849;SDS011;7517;48.400;11.770;2024-03-02T00:21:16;10.60;;;8.37;;
14849;SDS011;7517;48.400;11.770;2024-03-02T00:23:45;10.10;;;8.80;;
14849;SDS011;7517;48.400;11.770;2024-03-02T00:26:14;10.60;;;9.17;;
14849;SDS011;7517;48.400;11.770;2024-03-02T00:28:42;10.63;;;8.60;;
14849;SDS011;7517;48.400;11.770;2024-03-02T00:31:11;8.77;;;7.87;;
14849;SDS011;7517;48.400;11.770;2024-03-02T00:33:40;8.17;;;7.37;;
14849;SDS011;7517;48.400;11.770;2024-03-02T00:36:10;7.90;;;7.20;;
14849;SDS011;7517;48.400;11.770;2024-03-02T00:38:44;7.63;;;6.83;;
14849;SDS011;7517;48.400;11.770;2024-03-02T00:41:19;7.17;;;6.47;;
14849;SDS011;7517;48.400;11.770;2024-03-02T00:43:53;7.77;;;6.97;;
14849;SDS011;7517;48.400;11.770;2024-03-02T00:46:26;7.77;;;7.07;;
14849;SDS011;7517;48.400;11.770;2024-03-02T00:48:57;8.13;;;7.33;;
14849;SDS011;7517;48.400;11.770;2024-03-02T00:51:28;8.03;;;7.17;;
14849;SDS011;7517;48.400;11.770;2024-03-02T00:53:58;8.03;;;7.23;;
14849;SDS011;7517;48.400;11.770;2024-03-02T00:56:29;8.17;;;7.43;;
14849;SDS011;7517;48.400;11.770;2024-03-02T00:58:58;9.67;;;7.63;;
14849;SDS011;7517;48.400;11.770;2024-03-02T01:01:26;10.50;;;8.03;;
14849;SDS011;7517;48.400;11.770;2024-03-02T01:03:53;9.23;;;8.17;;
14849;SDS011;7517;48.400;11.770;2024-03-02T01:06:20;8.90;;;7.87;;
14849;SDS011;7517;48.400;11.770;2024-03-02T01:08:49;8.47;;;7.63;;
14849;SDS011;7517;48.400;11.770;2024-03-02T01:11:16;8.00;;;7.20;;
14849;SDS011;7517;48.400;11.770;2024-03-02T01:13:44;8.10;;;7.30;;
14849;SDS011;7517;48.400;11.770;2024-03-02T01:16:13;11.67;;;9.03;;
14849;SDS011;7517;48.400;11.770;2024-03-02T01:18:41;9.47;;;8.00;;
14849;SDS011;7517;48.400;11.770;2024-03-02T01:21:09;8.33;;;7.47;;
14849;SDS011;7517;48.400;11.770;2024-03-02T01:23:36;9.93;;;8.60;;
14849;SDS011;7517;48.400;11.770;2024-03-02T01:26:04;12.17;;;10.43;;
14849;SDS011;7517;48.400;11.770;2024-03-02T01:28:32;12.10;;;9.27;;
14849;SDS011;7517;48.400;11.770;2024-03-02T01:31:00;12.23;;;9.47;;
14849;SDS011;7517;48.400;11.770;2024-03-02T01:33:27;11.40;;;10.20;;
14849;SDS011;7517;48.400;11.770;2024-03-02T01:35:54;11.00;;;9.13;;
14849;SDS011;7517;48.400;11.770;2024-03-02T01:38:21;11.07;;;9.33;;
14849;SDS011;7517;48.400;11.770;2024-03-02T01:40:48;10.87;;;9.63;;
14849;SDS011;7517;48.400;11.770;2024-03-02T01:43:18;9.30;;;8.27;;
14849;SDS011;7517;48.400;11.770;2024-03-02T01:45:45;11.33;;;9.00;;
14849;SDS011;7517;48.400;11.770;2024-03-02T01:48:12;10.20;;;8.53;;
14849;SDS011;7517;48.400;11.770;2024-03-02T01:50:39;10.77;;;9.17;;
14849;SDS011;7517;48.400;11.770;2024-03-02T01:53:06;9.80;;;8.67;;
14849;SDS011;7517;48.400;11.770;2024-03-02T01:55:35;9.10;;;8.17;;
14849;SDS011;7517;48.400;11.770;2024-03-02T01:58:02;10.17;;;9.10;;
14849;SDS011;7517;48.400;11.770;2024-03-02T02:00:31;9.77;;;8.43;;
14849;SDS011;7517;48.400;11.770;2024-03-02T02:02:58;9.77;;;8.77;;
14849;SDS011;7517;48.400;11.770;2024-03-02T02:05:25;9.27;;;7.83;;
14849;SDS011;7517;48.400;11.770;2024-03-02T02:07:52;10.07;;;8.67;;
14849;SDS011;7517;48.400;11.770;2024-03-02T02:10:19;9.00;;;8.10;;
14849;SDS011;7517;48.400;11.770;2024-03-02T02:12:47;12.27;;;8.53;;
14849;SDS011;7517;48.400;11.770;2024-03-02T02:15:24;9.50;;;8.50;;
14849;SDS011;7517;48.400;11.770;2024-03-02T02:17:54;10.20;;;8.70;;
14849;SDS011;7517;48.400;11.770;2024-03-02T02:20:21;10.00;;;8.63;;
14849;SDS011;7517;48.400;11.770;2024-03-02T02:22:55;10.20;;;9.10;;
14849;SDS011;7517;48.400;11.770;2024-03-02T02:25:23;9.40;;;8.43;;
14849;SDS011;7517;48.400;11.770;2024-03-02T02:27:50;9.67;;;8.70;;
14849;SDS011;7517;48.400;11.770;2024-03-02T02:30:18;9.60;;;8.37;;
14849;SDS011;7517;48.400;11.770;2024-03-02T02:32:47;9.03;;;8.13;;
14849;SDS011;7517;48.400;11.770;2024-03-02T02:35:14;9.43;;;8.10;;
14849;SDS011;7517;48.400;11.770;2024-03-02T02:37:41;9.23;;;8.20;;
14849;SDS011;7517;48.400;11.770;2024-03-02T02:40:11;9.17;;;8.13;;
14849;SDS011;7517;48.400;11.770;2024-03-02T02:42:39;9.70;;;8.10;;
14849;SDS011;7517;48.400;11.770;2024-03-02T02:45:06;9.93;;;8.60;;
14849;SDS011;7517;48.400;11.770;2024-03-02T02:47:34;10.37;;;8.90;;
14849;SDS011;7517;48.400;11.770;2024-03-02T02:50:02;11.93;;;8.97;;
14849;SDS011;7517;48.400;11.770;2024-03-02T02:52:32;10.77;;;9.23;;
14849;SDS011;7517;48.400;11.770;2024-03-02T02:55:02;9.63;;;7.97;;
14849;SDS011;7517;48.400;11.770;2024-03-02T02:57:31;9.23;;;8.33;;
14849;SDS011;7517;48.400;11.770;2024-03-02T03:00:01;10.27;;;8.50;;
14849;SDS011;7517;48.400;11.770;2024-03-02T03:02:35;9.50;;;7.90;;
14849;SDS011;7517;48.400;11.770;2024-03-02T03:05:04;10.77;;;8.53;;
14849;SDS011;7517;48.400;11.770;2024-03-02T03:07:32;8.83;;;7.63;;
14849;SDS011;7517;48.400;11.770;2024-03-02T03:10:01;8.70;;;7.50;;
14849;SDS011;7517;48.400;11.770;2024-03-02T03:12:33;8.17;;;7.23;;
14849;SDS011;7517;48.400;11.770;2024-03-02T03:15:01;8.33;;;7.37;;
14849;SDS011;7517;48.400;11.770;2024-03-02T03:17:29;9.17;;;7.60;;
14849;SDS011;7517;48.400;11.770;2024-03-02T03:19:59;7.77;;;6.93;;
14849;SDS011;7517;48.400;11.770;2024-03-02T03:22:27;9.03;;;7.70;;
14849;SDS011;7517;48.400;11.770;2024-03-02T03:24:54;10.17;;;8.07;;
14849;SDS011;7517;48.400;11.770;2024-03-02T03:27:21;11.13;;;8.23;;
14849;SDS011;7517;48.400;11.770;2024-03-02T03:29:50;8.30;;;7.03;;
14849;SDS011;7517;48.400;11.770;2024-03-02T03:32:17;8.87;;;7.13;;
14849;SDS011;7517;48.400;11.770;2024-03-02T03:34:44;11.03;;;7.23;;
14849;SDS011;7517;48.400;11.770;2024-03-02T03:37:13;9.13;;;7.93;;
14849;SDS011;7517;48.400;11.770;2024-03-02T03:39:40;10.03;;;7.57;;
14849;SDS011;7517;48.400;11.770;2024-03-02T03:42:07;7.97;;;7.10;;
14849;SDS011;7517;48.400;11.770;2024-03-02T03:44:34;8.37;;;7.23;;
14849;SDS011;7517;48.400;11.770;2024-03-02T03:47:03;8.80;;;7.53;;
14849;SDS011;7517;48.400;11.770;2024-03-02T03:49:31;8.13;;;7.33;;
14849;SDS011;7517;48.400;11.770;2024-03-02T03:51:58;8.27;;;7.10;;
14849;SDS011;7517;48.400;11.770;2024-03-02T03:54:25;9.73;;;8.03;;
14849;SDS011;7517;48.400;11.770;2024-03-02T03:56:52;9.80;;;8.30;;
14849;SDS011;7517;48.400;11.770;2024-03-02T03:59:19;10.87;;;7.73;;
14849;SDS011;7517;48.400;11.770;2024-03-02T04:01:46;8.53;;;7.63;;
14849;SDS011;7517;48.400;11.770;2024-03-02T04:04:15;10.23;;;8.07;;
14849;SDS011;7517;48.400;11.770;2024-03-02T04:06:42;10.67;;;7.90;;
14849;SDS011;7517;48.400;11.770;2024-03-02T04:09:09;10.47;;;8.07;;
14849;SDS011;7517;48.400;11.770;2024-03-02T04:11:36;10.77;;;7.93;;
14849;SDS011;7517;48.400;11.770;2024-03-02T04:14:03;9.73;;;7.97;;
14849;SDS011;7517;48.400;11.770;2024-03-02T04:16:31;10.87;;;7.93;;
14849;SDS011;7517;48.400;11.770;2024-03-02T04:18:59;11.23;;;7.73;;
14849;SDS011;7517;48.400;11.770;2024-03-02T04:21:28;9.47;;;7.60;;
14849;SDS011;7517;48.400;11.770;2024-03-02T04:23:55;11.93;;;8.00;;
14849;SDS011;7517;48.400;11.770;2024-03-02T04:26:24;9.13;;;7.50;;
14849;SDS011;7517;48.400;11.770;2024-03-02T04:28:51;10.27;;;7.77;;
14849;SDS011;7517;48.400;11.770;2024-03-02T04:31:19;11.80;;;7.83;;
14849;SDS011;7517;48.400;11.770;2024-03-02T04:33:46;9.70;;;8.20;;
14849;SDS011;7517;48.400;11.770;2024-03-02T04:36:13;9.97;;;7.93;;
14849;SDS011;7517;48.400;11.770;2024-03-02T04:38:41;11.67;;;9.30;;
14849;SDS011;7517;48.400;11.770;2024-03-02T04:41:09;12.43;;;9.70;;
14849;SDS011;7517;48.400;11.770;2024-03-02T04:43:36;13.07;;;10.37;;
14849;SDS011;7517;48.400;11.770;2024-03-02T04:46:03;12.23;;;9.57;;
14849;SDS011;7517;48.400;11.770;2024-03-02T04:48:31;12.00;;;9.87;;
14849;SDS011;7517;48.400;11.770;2024-03-02T04:50:59;13.47;;;9.97;;
14849;SDS011;7517;48.400;11.770;2024-03-02T04:53:26;13.30;;;10.00;;
14849;SDS011;7517;48.400;11.770;2024-03-02T04:55:54;11.93;;;8.80;;
14849;SDS011;7517;48.400;11.770;2024-03-02T04:58:45;13.53;;;9.63;;
14849;SDS011;7517;48.400;11.770;2024-03-02T05:01:12;11.20;;;8.67;;
14849;SDS011;7517;48.400;11.770;2024-03-02T05:03:41;11.53;;;9.07;;
14849;SDS011;7517;48.400;11.770;2024-03-02T05:06:08;10.83;;;8.80;;
14849;SDS011;7517;48.400;11.770;2024-03-02T05:08:36;11.73;;;9.43;;
14849;SDS011;7517;48.400;11.770;2024-03-02T05:11:05;12.30;;;8.17;;
14849;SDS011;7517;48.400;11.770;2024-03-02T05:13:50;10.00;;;7.70;;
14849;SDS011;7517;48.400;11.770;2024-03-02T05:16:17;10.20;;;8.77;;
14849;SDS011;7517;48.400;11.770;2024-03-02T05:18:44;10.67;;;8.27;;
14849;SDS011;7517;48.400;11.770;2024-03-02T05:21:11;11.53;;;8.63;;
14849;SDS011;7517;48.400;11.770;2024-03-02T05:23:38;11.47;;;8.90;;
14849;SDS011;7517;48.400;11.770;2024-03-02T05:26:07;12.00;;;8.87;;
14849;SDS011;7517;48.400;11.770;2024-03-02T05:28:36;12.07;;;9.33;;
14849;SDS011;7517;48.400;11.770;2024-03-02T05:31:03;12.10;;;8.87;;
14849;SDS011;7517;48.400;11.770;2024-03-02T05:33:30;9.20;;;8.23;;
14849;SDS011;7517;48.400;11.770;2024-03-02T05:35:58;10.67;;;8.53;;
14849;SDS011;7517;48.400;11.770;2024-03-02T05:38:27;10.37;;;8.43;;
14849;SDS011;7517;48.400;11.770;2024-03-02T05:40:54;9.37;;;8.03;;
14849;SDS011;7517;48.400;11.770;2024-03-02T05:43:22;9.30;;;8.13;;
14849;SDS011;7517;48.400;11.770;2024-03-02T05:45:49;11.07;;;8.87;;
14849;SDS011;7517;48.400;11.770;2024-03-02T05:48:16;12.23;;;9.50;;
14849;SDS011;7517;48.400;11.770;2024-03-02T05:50:44;11.43;;;9.10;;
14849;SDS011;7517;48.400;11.770;2024-03-02T05:53:11;11.70;;;8.53;;
14849;SDS011;7517;48.400;11.770;2024-03-02T05:55:38;10.53;;;8.80;;
14849;SDS011;7517;48.400;11.770;2024-03-02T05:58:05;11.27;;;8.80;;
14849;SDS011;7517;48.400;11.770;2024-03-02T06:00:49;11.57;;;8.97;;
14849;SDS011;7517;48.400;11.770;2024-03-02T06:03:16;11.80;;;7.87;;
14849;SDS011;7517;48.400;11.770;2024-03-02T06:05:43;10.77;;;8.67;;
14849;SDS011;7517;48.400;11.770;2024-03-02T06:08:10;10.57;;;8.63;;
14849;SDS011;7517;48.400;11.770;2024-03-02T06:10:37;10.93;;;9.20;;
14849;SDS011;7517;48.400;11.770;2024-03-02T06:13:05;12.23;;;9.30;;
14849;SDS011;7517;48.400;11.770;2024-03-02T06:15:32;10.70;;;8.50;;
14849;SDS011;7517;48.400;11.770;2024-03-02T06:18:02;12.73;;;9.20;;
14849;SDS011;7517;48.400;11.770;2024-03-02T06:20:31;10.73;;;7.93;;
14849;SDS011;7517;48.400;11.770;2024-03-02T06:22:58;11.70;;;9.07;;
14849;SDS011;7517;48.400;11.770;2024-03-02T06:25:26;11.93;;;9.10;;
14849;SDS011;7517;48.400;11.770;2024-03-02T06:27:53;11.37;;;9.03;;
14849;SDS011;7517;48.400;11.770;2024-03-02T06:30:20;11.63;;;9.47;;
14849;SDS011;7517;48.400;11.770;2024-03-02T06:32:47;10.37;;;8.67;;
14849;SDS011;7517;48.400;11.770;2024-03-02T06:35:15;12.57;;;8.83;;
14849;SDS011;7517;48.400;11.770;2024-03-02T06:37:42;11.87;;;9.10;;
14849;SDS011;7517;48.400;11.770;2024-03-02T06:40:10;11.47;;;9.03;;
14849;SDS011;7517;48.400;11.770;2024-03-02T06:42:37;10.03;;;8.57;;
14849;SDS011;7517;48.400;11.770;2024-03-02T06:45:04;8.87;;;7.97;;
14849;SDS011;7517;48.400;11.770;2024-03-02T06:47:33;11.93;;;8.97;;
14849;SDS011;7517;48.400;11.770;2024-03-02T06:50:00;10.63;;;8.93;;
14849;SDS011;7517;48.400;11.770;2024-03-02T06:52:28;10.83;;;8.37;;
14849;SDS011;7517;48.400;11.770;2024-03-02T06:54:55;10.60;;;8.50;;
14849;SDS011;7517;48.400;11.770;2024-03-02T06:57:23;11.73;;;9.10;;
14849;SDS011;7517;48.400;11.770;2024-03-02T06:59:50;11.27;;;8.07;;
14849;SDS011;7517;48.400;11.770;2024-03-02T07:02:19;10.97;;;9.20;;
14849;SDS011;7517;48.400;11.770;2024-03-02T07:04:48;10.87;;;8.63;;
14849;SDS011;7517;48.400;11.770;2024-03-02T07:07:16;11.73;;;8.63;;
14849;SDS011;7517;48.400;11.770;2024-03-02T07:09:45;11.93;;;8.83;;
14849;SDS011;7517;48.400;11.770;2024-03-02T07:12:12;15.33;;;9.00;;
14849;SDS011;7517;48.400;11.770;2024-03-02T07:14:39;11.93;;;9.87;;
14849;SDS011;7517;48.400;11.770;2024-03-02T07:17:36;12.80;;;8.70;;
14849;SDS011;7517;48.400;11.770;2024-03-02T07:20:04;13.70;;;10.10;;
14849;SDS011;7517;48.400;11.770;2024-03-02T07:22:33;11.53;;;9.07;;
14849;SDS011;7517;48.400;11.770;2024-03-02T07:25:04;12.30;;;9.57;;
14849;SDS011;7517;48.400;11.770;2024-03-02T07:27:33;10.80;;;9.07;;
14849;SDS011;7517;48.400;11.770;2024-03-02T07:30:01;12.27;;;9.00;;
14849;SDS011;7517;48.400;11.770;2024-03-02T07:32:28;12.40;;;10.20;;
14849;SDS011;7517;48.400;11.770;2024-03-02T07:34:55;12.20;;;9.60;;
14849;SDS011;7517;48.400;11.770;2024-03-02T07:37:23;12.07;;;9.37;;
14849;SDS011;7517;48.400;11.770;2024-03-02T07:39:50;13.27;;;9.83;;
14849;SDS011;7517;48.400;11.770;2024-03-02T07:42:19;12.87;;;10.57;;
14849;SDS011;7517;48.400;11.770;2024-03-02T07:44:46;13.30;;;10.57;;
14849;SDS011;7517;48.400;11.770;2024-03-02T07:47:13;13.13;;;10.13;;
14849;SDS011;7517;48.400;11.770;2024-03-02T07:49:40;14.60;;;9.77;;
14849;SDS011;7517;48.400;11.770;2024-03-02T07:52:08;15.93;;;11.87;;
14849;SDS011;7517;48.400;11.770;2024-03-02T07:54:35;15.53;;;12.10;;
14849;SDS011;7517;48.400;11.770;2024-03-02T07:57:02;17.87;;;10.93;;
14849;SDS011;7517;48.400;11.770;2024-03-02T07:59:31;17.43;;;10.63;;
14849;SDS011;7517;48.400;11.770;2024-03-02T08:01:59;13.40;;;9.30;;
14849;SDS011;7517;48.400;11.770;2024-03-02T08:04:26;15.73;;;9.67;;
14849;SDS011;7517;48.400;11.770;2024-03-02T08:06:53;12.53;;;9.90;;
14849;SDS011;7517;48.400;11.770;2024-03-02T08:09:23;12.70;;;9.53;;
14849;SDS011;7517;48.400;11.770;2024-03-02T08:11:51;10.87;;;9.27;;
14849;SDS011;7517;48.400;11.770;2024-03-02T08:14:18;12.13;;;8.77;;
14849;SDS011;7517;48.400;11.770;2024-03-02T08:16:46;13.27;;;9.93;;
14849;SDS011;7517;48.400;11.770;2024-03-02T08:19:13;10.83;;;9.47;;
14849;SDS011;7517;48.400;11.770;2024-03-02T08:21:41;12.67;;;10.00;;
14849;SDS011;7517;48.400;11.770;2024-03-02T08:24:09;16.90;;;10.70;;
14849;SDS011;7517;48.400;11.770;2024-03-02T08:26:37;14.80;;;11.37;;
14849;SDS011;7517;48.400;11.770;2024-03-02T08:29:04;13.63;;;10.57;;
14849;SDS011;7517;48.400;11.770;2024-03-02T08:31:34;14.97;;;11.20;;
14849;SDS011;7517;48.400;11.770;2024-03-02T08:34:11;13.00;;;10.77;;
14849;SDS011;7517;48.400;11.770;2024-03-02T08:36:38;14.20;;;11.40;;
14849;SDS011;7517;48.400;11.770;2024-03-02T08:39:05;12.40;;;9.97;;
14849;SDS011;7517;48.400;11.770;2024-03-02T08:41:42;13.73;;;10.57;;
14849;SDS011;7517;48.400;11.770;2024-03-02T08:44:12;13.73;;;10.83;;
14849;SDS011;7517;48.400;11.770;2024-03-02T08:46:43;14.83;;;10.77;;
14849;SDS011;7517;48.400;11.770;2024-03-02T08:49:14;14.03;;;10.90;;
14849;SDS011;7517;48.400;11.770;2024-03-02T08:51:42;14.77;;;11.20;;
14849;SDS011;7517;48.400;11.770;2024-03-02T08:54:19;15.23;;;11.10;;
14849;SDS011;7517;48.400;11.770;2024-03-02T08:56:46;28.60;;;11.93;;
14849;SDS011;7517;48.400;11.770;2024-03-02T08:59:14;15.47;;;11.60;;
14849;SDS011;7517;48.400;11.770;2024-03-02T09:01:41;14.03;;;11.13;;
14849;SDS011;7517;48.400;11.770;2024-03-02T09:04:08;15.20;;;11.43;;
14849;SDS011;7517;48.400;11.770;2024-03-02T09:06:37;14.67;;;11.77;;
14849;SDS011;7517;48.400;11.770;2024-03-02T09:09:04;15.80;;;11.23;;
14849;SDS011;7517;48.400;11.770;2024-03-02T09:11:33;15.40;;;11.77;;
14849;SDS011;7517;48.400;11.770;2024-03-02T09:14:01;16.27;;;11.27;;
14849;SDS011;7517;48.400;11.770;2024-03-02T09:16:28;15.50;;;12.07;;
14849;SDS011;7517;48.400;11.770;2024-03-02T09:18:56;14.87;;;11.50;;
14849;SDS011;7517;48.400;11.770;2024-03-02T09:21:26;14.60;;;10.67;;
14849;SDS011;7517;48.400;11.770;2024-03-02T09:23:56;17.10;;;12.43;;
14849;SDS011;7517;48.400;11.770;2024-03-02T09:26:23;16.00;;;12.03;;
14849;SDS011;7517;48.400;11.770;2024-03-02T09:28:53;15.03;;;11.13;;
14849;SDS011;7517;48.400;11.770;2024-03-02T09:31:21;19.33;;;12.23;;
14849;SDS011;7517;48.400;11.770;2024-03-02T09:33:48;16.27;;;11.97;;
14849;SDS011;7517;48.400;11.770;2024-03-02T09:36:18;16.30;;;12.73;;
14849;SDS011;7517;48.400;11.770;2024-03-02T09:38:47;15.77;;;12.33;;
14849;SDS011;7517;48.400;11.770;2024-03-02T09:41:16;15.80;;;12.30;;
14849;SDS011;7517;48.400;11.770;2024-03-02T09:43:43;19.17;;;13.63;;
14849;SDS011;7517;48.400;11.770;2024-03-02T09:46:10;17.40;;;12.97;;
14849;SDS011;7517;48.400;11.770;2024-03-02T09:48:37;18.50;;;14.23;;
14849;SDS011;7517;48.400;11.770;2024-03-02T09:51:05;23.33;;;14.10;;
14849;SDS011;7517;48.400;11.770;2024-03-02T09:53:33;17.97;;;14.17;;
14849;SDS011;7517;48.400;11.770;2024-03-02T09:56:01;20.03;;;14.30;;
14849;SDS011;7517;48.400;11.770;2024-03-02T09:58:29;20.63;;;14.13;;
14849;SDS011;7517;48.400;11.770;2024-03-02T10:00:57;21.13;;;15.27;;
14849;SDS011;7517;48.400;11.770;2024-03-02T10:03:24;18.40;;;14.87;;
14849;SDS011;7517;48.400;11.770;2024-03-02T10:05:52;18.00;;;13.60;;
14849;SDS011;7517;48.400;11.770;2024-03-02T10:08:19;19.40;;;14.93;;
14849;SDS011;7517;48.400;11.770;2024-03-02T10:10:46;19.10;;;14.33;;
14849;SDS011;7517;48.400;11.770;2024-03-02T10:13:14;18.77;;;13.73;;
14849;SDS011;7517;48.400;11.770;2024-03-02T10:15:43;16.83;;;13.53;;
14849;SDS011;7517;48.400;11.770;2024-03-02T10:18:12;19.80;;;14.80;;
14849;SDS011;7517;48.400;11.770;2024-03-02T10:20:41;19.70;;;14.80;;
14849;SDS011;7517;48.400;11.770;2024-03-02T10:23:11;20.70;;;15.30;;
14849;SDS011;7517;48.400;11.770;2024-03-02T10:25:40;19.10;;;14.00;;
14849;SDS011;7517;48.400;11.770;2024-03-02T10:28:08;19.93;;;13.77;;
14849;SDS011;7517;48.400;11.770;2024-03-02T10:30:38;19.70;;;14.13;;
14849;SDS011;7517;48.400;11.770;2024-03-02T10:33:08;18.07;;;13.90;;
14849;SDS011;7517;48.400;11.770;2024-03-02T10:35:36;18.13;;;14.40;;
14849;SDS011;7517;48.400;11.770;2024-03-02T10:38:05;18.70;;;14.03;;
14849;SDS011;7517;48.400;11.770;2024-03-02T10:40:33;18.27;;;13.83;;
14849;SDS011;7517;48.400;11.770;2024-03-02T10:43:00;17.80;;;13.47;;
14849;SDS011;7517;48.400;11.770;2024-03-02T10:45:30;20.67;;;14.30;;
14849;SDS011;7517;48.400;11.770;2024-03-02T10:47:58;18.10;;;14.30;;
14849;SDS011;7517;48.400;11.770;2024-03-02T10:50:29;17.93;;;12.87;;
14849;SDS011;7517;48.400;11.770;2024-03-02T10:52:57;16.53;;;12.77;;
14849;SDS011;7517;48.400;11.770;2024-03-02T10:55:24;18.47;;;13.37;;
14849;SDS011;7517;48.400;11.770;2024-03-02T10:57:52;17.57;;;12.57;;
14849;SDS011;7517;48.400;11.770;2024-03-02T11:00:23;16.87;;;12.80;;
14849;SDS011;7517;48.400;11.770;2024-03-02T11:03:04;18.10;;;12.83;;
14849;SDS011;7517;48.400;11.770;2024-03-02T11:05:36;17.60;;;12.73;;
14849;SDS011;7517;48.400;11.770;2024-03-02T11:08:12;15.83;;;11.73;;
14849;SDS011;7517;48.400;11.770;2024-03-02T11:10:45;16.63;;;11.77;;
14849;SDS011;7517;48.400;11.770;2024-03-02T11:13:19;15.90;;;12.80;;
14849;SDS011;7517;48.400;11.770;2024-03-02T11:15:55;15.33;;;11.97;;
14849;SDS011;7517;48.400;11.770;2024-03-02T11:18:30;15.23;;;11.77;;
14849;SDS011;7517;48.400;11.770;2024-03-02T11:21:00;15.13;;;11.50;;
14849;SDS011;7517;48.400;11.770;2024-03-02T11:23:33;13.90;;;11.23;;
14849;SDS011;7517;48.400;11.770;2024-03-02T11:26:16;13.80;;;11.20;;
14849;SDS011;7517;48.400;11.770;2024-03-02T11:28:46;14.87;;;10.83;;
14849;SDS011;7517;48.400;11.770;2024-03-02T11:31:17;13.57;;;11.07;;
14849;SDS011;7517;48.400;11.770;2024-03-02T11:33:44;15.23;;;10.63;;
14849;SDS011;7517;48.400;11.770;2024-03-02T11:36:13;13.67;;;11.00;;
14849;SDS011;7517;48.400;11.770;2024-03-02T11:38:43;13.17;;;10.70;;
14849;SDS011;7517;48.400;11.770;2024-03-02T11:41:11;14.70;;;10.43;;
14849;SDS011;7517;48.400;11.770;2024-03-02T11:43:39;12.37;;;10.07;;
14849;SDS011;7517;48.400;11.770;2024-03-02T11:46:09;14.93;;;10.40;;
14849;SDS011;7517;48.400;11.770;2024-03-02T11:48:38;14.93;;;10.50;;
14849;SDS011;7517;48.400;11.770;2024-03-02T11:51:06;13.17;;;10.87;;
14849;SDS011;7517;48.400;11.770;2024-03-02T11:53:35;14.37;;;9.93;;
14849;SDS011;7517;48.400;11.770;2024-03-02T11:56:05;12.80;;;9.30;;
14849;SDS011;7517;48.400;11.770;2024-03-02T11:58:36;12.53;;;8.90;;
14849;SDS011;7517;48.400;11.770;2024-03-02T12:01:06;12.73;;;8.70;;
14849;SDS011;7517;48.400;11.770;2024-03-02T12:03:33;10.53;;;9.00;;
14849;SDS011;7517;48.400;11.770;2024-03-02T12:06:01;11.53;;;9.53;;
14849;SDS011;7517;48.400;11.770;2024-03-02T12:08:31;10.73;;;8.70;;
14849;SDS011;7517;48.400;11.770;2024-03-02T12:11:01;12.50;;;9.57;;
14849;SDS011;7517;48.400;11.770;2024-03-02T12:13:31;11.47;;;8.90;;
14849;SDS011;7517;48.400;11.770;2024-03-02T12:15:59;10.60;;;9.10;;
14849;SDS011;7517;48.400;11.770;2024-03-02T12:18:26;11.67;;;9.13;;
14849;SDS011;7517;48.400;11.770;2024-03-02T12:20:53;11.87;;;9.40;;
14849;SDS011;7517;48.400;11.770;2024-03-02T12:23:23;12.20;;;9.53;;
14849;SDS011;7517;48.400;11.770;2024-03-02T12:25:51;11.20;;;9.33;;
14849;SDS011;7517;48.400;11.770;2024-03-02T12:28:20;13.10;;;9.60;;
14849;SDS011;7517;48.400;11.770;2024-03-02T12:30:47;13.37;;;10.47;;
14849;SDS011;7517;48.400;11.770;2024-03-02T12:33:16;14.73;;;9.93;;
14849;SDS011;7517;48.400;11.770;2024-03-02T12:35:44;11.77;;;8.80;;
14849;SDS011;7517;48.400;11.770;2024-03-02T12:38:12;11.97;;;9.57;;
14849;SDS011;7517;48.400;11.770;2024-03-02T12:40:39;13.53;;;9.63;;
14849;SDS011;7517;48.400;11.770;2024-03-02T12:43:06;11.80;;;9.70;;
14849;SDS011;7517;48.400;11.770;2024-03-02T12:45:35;13.30;;;10.23;;
14849;SDS011;7517;48.400;11.770;2024-03-02T12:48:03;12.40;;;9.87;;
14849;SDS011;7517;48.400;11.770;2024-03-02T12:50:33;13.57;;;10.23;;
14849;SDS011;7517;48.400;11.770;2024-03-02T12:53:00;10.47;;;8.77;;
14849;SDS011;7517;48.400;11.770;2024-03-02T12:55:28;13.13;;;10.07;;
14849;SDS011;7517;48.400;11.770;2024-03-02T12:57:56;16.07;;;11.03;;
14849;SDS011;7517;48.400;11.770;2024-03-02T13:00:24;14.33;;;10.77;;
14849;SDS011;7517;48.400;11.770;2024-03-02T13:02:52;11.40;;;9.23;;
14849;SDS011;7517;48.400;11.770;2024-03-02T13:05:29;9.87;;;8.60;;
14849;SDS011;7517;48.400;11.770;2024-03-02T13:07:57;13.83;;;10.17;;
14849;SDS011;7517;48.400;11.770;2024-03-02T13:10:25;12.87;;;10.37;;
14849;SDS011;7517;48.400;11.770;2024-03-02T13:12:53;14.57;;;11.03;;
14849;SDS011;7517;48.400;11.770;2024-03-02T13:15:22;13.77;;;10.50;;
14849;SDS011;7517;48.400;11.770;2024-03-02T13:17:50;13.47;;;10.03;;
14849;SDS011;7517;48.400;11.770;2024-03-02T13:20:19;15.43;;;11.67;;
14849;SDS011;7517;48.400;11.770;2024-03-02T13:22:46;14.73;;;10.33;;
14849;SDS011;7517;48.400;11.770;2024-03-02T13:25:14;13.07;;;10.23;;
14849;SDS011;7517;48.400;11.770;2024-03-02T13:27:41;13.53;;;11.33;;
14849;SDS011;7517;48.400;11.770;2024-03-02T13:30:09;15.17;;;10.53;;
14849;SDS011;7517;48.400;11.770;2024-03-02T13:32:37;14.57;;;10.33;;
14849;SDS011;7517;48.400;11.770;2024-03-02T13:35:05;16.83;;;10.57;;
14849;SDS011;7517;48.400;11.770;2024-03-02T13:37:33;17.30;;;10.57;;
14849;SDS011;7517;48.400;11.770;2024-03-02T13:40:00;13.53;;;9.90;;
14849;SDS011;7517;48.400;11.770;2024-03-02T13:42:29;12.33;;;9.80;;
14849;SDS011;7517;48.400;11.770;2024-03-02T13:44:57;12.60;;;10.07;;
14849;SDS011;7517;48.400;11.770;2024-03-02T13:47:24;12.73;;;10.10;;
14849;SDS011;7517;48.400;11.770;2024-03-02T13:49:52;12.03;;;9.70;;
14849;SDS011;7517;48.400;11.770;2024-03-02T13:52:21;14.23;;;10.40;;
14849;SDS011;7517;48.400;11.770;2024-03-02T13:54:50;13.50;;;10.53;;
14849;SDS011;7517;48.400;11.770;2024-03-02T13:57:18;14.90;;;10.53;;
14849;SDS011;7517;48.400;11.770;2024-03-02T13:59:46;14.53;;;10.57;;
14849;SDS011;7517;48.400;11.770;2024-03-02T14:02:14;13.63;;;10.23;;
14849;SDS011;7517;48.400;11.770;2024-03-02T14:04:42;14.40;;;10.47;;
14849;SDS011;7517;48.400;11.770;2024-03-02T14:07:09;13.60;;;10.33;;
14849;SDS011;7517;48.400;11.770;2024-03-02T14:09:38;14.03;;;9.90;;
14849;SDS011;7517;48.400;11.770;2024-03-02T14:12:06;13.27;;;9.93;;
14849;SDS011;7517;48.400;11.770;2024-03-02T14:14:35;12.93;;;9.70;;
14849;SDS011;7517;48.400;11.770;2024-03-02T14:17:02;13.37;;;9.97;;
14849;SDS011;7517;48.400;11.770;2024-03-02T14:19:31;13.73;;;10.33;;
14849;SDS011;7517;48.400;11.770;2024-03-02T14:21:59;12.97;;;9.60;;
14849;SDS011;7517;48.400;11.770;2024-03-02T14:24:28;12.83;;;9.97;;
14849;SDS011;7517;48.400;11.770;2024-03-02T14:27:00;12.90;;;9.77;;
14849;SDS011;7517;48.400;11.770;2024-03-02T14:29:29;12.63;;;9.50;;
14849;SDS011;7517;48.400;11.770;2024-03-02T14:31:58;12.20;;;9.57;;
14849;SDS011;7517;48.400;11.770;2024-03-02T14:34:25;12.47;;;9.20;;
14849;SDS011;7517;48.400;11.770;2024-03-02T14:36:52;13.60;;;9.30;;
14849;SDS011;7517;48.400;11.770;2024-03-02T14:39:19;12.73;;;9.47;;
14849;SDS011;7517;48.400;11.770;2024-03-02T14:41:47;13.80;;;9.80;;